createdAt,value
2022-08-08T00:00:53.361Z,6.60
2022-08-08T00:03:19.950Z,8.25
2022-08-08T00:06:02.766Z,7.38
2022-08-08T00:08:38.933Z,8.05
2022-08-08T00:11:23.824Z,6.82
2022-08-08T00:14:16.581Z,6.68
2022-08-08T00:17:22.552Z,7.75
2022-08-08T00:19:54.633Z,9.20
2022-08-08T00:22:46.743Z,7.93
2022-08-08T00:25:16.284Z,6.97
2022-08-08T00:27:43.596Z,5.68
2022-08-08T00:30:11.233Z,5.80
2022-08-08T00:32:56.046Z,6.28
2022-08-08T00:35:26.984Z,6.70
2022-08-08T00:38:16.806Z,7.30
2022-08-08T00:41:14.825Z,7.07
2022-08-08T00:43:59.278Z,6.13
2022-08-08T00:46:27.229Z,6.95
2022-08-08T00:49:01.562Z,5.93
2022-08-08T00:51:42.437Z,6.38
2022-08-08T00:54:28.966Z,7.43
2022-08-08T00:56:58.223Z,6.57
2022-08-08T00:59:46.027Z,7.32
2022-08-08T01:03:54.074Z,6.30
2022-08-08T01:05:11.713Z,6.85
2022-08-08T01:07:57.989Z,6.50
2022-08-08T01:10:29.532Z,7.30
2022-08-08T01:12:58.158Z,7.60
2022-08-08T01:15:47.277Z,7.13
2022-08-08T01:18:53.499Z,7.28
2022-08-08T01:21:15.695Z,6.68
2022-08-08T01:24:20.946Z,6.63
2022-08-08T01:27:16.122Z,7.43
2022-08-08T01:30:03.550Z,6.30
2022-08-08T01:32:35.797Z,6.05
2022-08-08T01:35:17.071Z,6.85
2022-08-08T01:37:59.138Z,6.82
2022-08-08T01:40:44.315Z,5.78
2022-08-08T01:43:23.551Z,6.47
2022-08-08T01:46:08.555Z,6.72
2022-08-08T01:48:53.911Z,6.35
2022-08-08T01:52:51.927Z,6.55
2022-08-08T01:55:45.198Z,7.55
2022-08-08T01:58:11.615Z,6.82
2022-08-08T02:00:33.852Z,6.63
2022-08-08T02:03:56.248Z,6.85
2022-08-08T02:06:32.631Z,6.53
2022-08-08T02:09:16.075Z,6.22
2022-08-08T02:11:58.578Z,5.97
2022-08-08T02:14:30.401Z,6.72
2022-08-08T02:17:10.552Z,6.50
2022-08-08T02:20:07.706Z,6.18
2022-08-08T02:22:52.908Z,7.22
2022-08-08T02:25:33.201Z,7.63
2022-08-08T02:28:15.891Z,7.60
2022-08-08T02:30:49.851Z,6.72
2022-08-08T02:34:00.641Z,6.35
2022-08-08T02:36:35.371Z,6.90
2022-08-08T02:39:41.047Z,6.32
2022-08-08T02:42:05.523Z,6.50
2022-08-08T02:44:57.174Z,5.78
2022-08-08T02:47:24.464Z,5.90
2022-08-08T02:50:18.032Z,6.50
2022-08-08T02:53:12.440Z,6.63
2022-08-08T02:56:01.438Z,7.63
2022-08-08T02:58:43.948Z,6.40
2022-08-08T03:01:15.060Z,7.03
2022-08-08T03:05:05.091Z,7.50
2022-08-08T03:06:50.328Z,7.15
2022-08-08T03:09:35.251Z,8.43
2022-08-08T03:12:13.992Z,8.05
2022-08-08T03:15:57.287Z,7.13
2022-08-08T03:18:04.596Z,7.18
2022-08-08T03:20:46.827Z,7.47
2022-08-08T03:23:18.144Z,7.80
2022-08-08T03:25:45.432Z,7.75
2022-08-08T03:28:41.123Z,7.57
2022-08-08T03:31:26.236Z,7.55
2022-08-08T03:33:58.138Z,6.47
2022-08-08T03:36:30.300Z,7.63
2022-08-08T03:39:14.906Z,6.35
2022-08-08T03:42:27.393Z,7.32
2022-08-08T03:44:32.979Z,6.43
2022-08-08T03:46:59.795Z,6.22
2022-08-08T03:49:58.775Z,6.97
2022-08-08T03:52:26.806Z,6.85
2022-08-08T03:55:09.665Z,7.32
2022-08-08T03:58:30.321Z,7.00
2022-08-08T04:00:31.229Z,8.02
2022-08-08T04:03:03.475Z,7.07
2022-08-08T04:05:32.399Z,7.90
2022-08-08T04:08:02.179Z,7.43
2022-08-08T04:10:32.360Z,6.85
2022-08-08T04:12:59.288Z,6.63
2022-08-08T04:15:30.362Z,7.38
2022-08-08T04:18:04.794Z,6.90
2022-08-08T04:20:31.614Z,7.25
2022-08-08T04:22:58.253Z,6.50
2022-08-08T04:25:29.904Z,7.45
2022-08-08T04:28:10.696Z,7.10
2022-08-08T04:30:45.478Z,5.93
2022-08-08T04:33:12.541Z,6.38
2022-08-08T04:35:51.391Z,6.53
2022-08-08T04:38:21.787Z,6.47
2022-08-08T04:40:51.797Z,6.43
2022-08-08T04:43:22.157Z,6.32
2022-08-08T04:45:49.053Z,6.05
2022-08-08T04:48:15.779Z,6.40
2022-08-08T04:50:46.035Z,5.53
2022-08-08T04:53:14.126Z,6.85
2022-08-08T04:55:59.052Z,7.32
2022-08-08T04:58:25.978Z,5.88
2022-08-08T05:00:52.358Z,6.20
2022-08-08T05:04:10.824Z,7.43
2022-08-08T05:06:12.575Z,6.45
2022-08-08T05:08:44.934Z,6.70
2022-08-08T05:11:18.645Z,6.65
2022-08-08T05:13:58.398Z,6.93
2022-08-08T05:16:51.608Z,7.32
2022-08-08T05:20:10.912Z,7.65
2022-08-08T05:22:02.055Z,7.75
2022-08-08T05:24:28.380Z,6.50
2022-08-08T05:26:57.415Z,6.68
2022-08-08T05:29:23.855Z,6.13
2022-08-08T05:32:05.374Z,7.30
2022-08-08T05:34:32.293Z,6.68
2022-08-08T05:36:59.675Z,7.13
2022-08-08T05:39:28.579Z,7.28
2022-08-08T05:42:01.229Z,8.80
2022-08-08T05:44:31.208Z,8.25
2022-08-08T05:47:02.983Z,9.05
2022-08-08T05:49:29.711Z,7.90
2022-08-08T05:51:57.627Z,8.07
2022-08-08T05:54:42.934Z,8.05
2022-08-08T05:57:15.364Z,8.30
2022-08-08T05:59:52.423Z,7.60
2022-08-08T06:02:47.876Z,8.05
2022-08-08T06:05:33.541Z,6.70
2022-08-08T06:08:09.058Z,8.93
2022-08-08T06:10:39.342Z,7.07
2022-08-08T06:13:10.114Z,7.13
2022-08-08T06:15:51.285Z,8.20
2022-08-08T06:18:22.463Z,7.30
2022-08-08T06:20:50.894Z,7.32
2022-08-08T06:23:23.504Z,8.20
2022-08-08T06:26:38.300Z,7.18
2022-08-08T06:29:02.516Z,6.93
2022-08-08T06:31:52.575Z,6.40
2022-08-08T06:34:28.390Z,6.05
2022-08-08T06:36:55.486Z,6.35
2022-08-08T06:39:24.929Z,5.60
2022-08-08T06:42:02.767Z,6.03
2022-08-08T06:44:30.283Z,6.05
2022-08-08T06:46:57.675Z,5.50
2022-08-08T06:49:56.135Z,4.45
2022-08-08T06:52:10.714Z,4.03
2022-08-08T06:54:43.067Z,4.15
2022-08-08T06:57:10.584Z,5.20
2022-08-08T07:00:02.646Z,4.97
2022-08-08T07:02:28.866Z,4.40
2022-08-08T07:05:00.501Z,4.43
2022-08-08T07:07:39.119Z,3.95
2022-08-08T07:10:09.426Z,4.35
2022-08-08T07:12:41.054Z,3.75
2022-08-08T07:15:32.220Z,3.90
2022-08-08T07:18:36.848Z,3.35
2022-08-08T07:21:02.089Z,3.80
2022-08-08T07:26:28.785Z,3.58
2022-08-08T07:28:59.411Z,3.83
2022-08-08T07:31:35.360Z,3.60
2022-08-08T07:34:03.051Z,3.40
2022-08-08T07:36:30.594Z,3.63
2022-08-08T07:38:57.688Z,3.53
2022-08-08T07:41:29.223Z,5.30
2022-08-08T07:44:33.651Z,6.13
2022-08-08T07:47:03.448Z,3.60
2022-08-08T07:49:29.788Z,4.40
2022-08-08T07:51:57.732Z,4.60
2022-08-08T07:54:33.534Z,6.07
2022-08-08T07:57:09.009Z,6.75
2022-08-08T07:59:42.292Z,8.57
2022-08-08T08:02:36.536Z,3.22
2022-08-08T08:05:00.715Z,4.65
2022-08-08T08:07:38.796Z,3.75
2022-08-08T08:10:05.846Z,3.08
2022-08-08T08:12:41.183Z,3.00
2022-08-08T08:15:11.588Z,3.25
2022-08-08T08:17:48.442Z,4.50
2022-08-08T08:20:16.313Z,3.55
2022-08-08T08:22:43.130Z,3.55
2022-08-08T08:25:09.538Z,3.70
2022-08-08T08:27:36.821Z,3.85
2022-08-08T08:30:03.894Z,3.45
2022-08-08T08:32:35.885Z,3.00
2022-08-08T08:35:04.720Z,3.00
2022-08-08T08:37:32.166Z,3.70
2022-08-08T08:40:01.195Z,3.75
2022-08-08T08:42:35.720Z,3.83
2022-08-08T08:45:21.078Z,3.10
2022-08-08T08:47:54.543Z,4.20
2022-08-08T08:50:33.175Z,3.60
2022-08-08T08:53:04.754Z,3.58
2022-08-08T08:55:39.218Z,3.55
2022-08-08T09:01:02.856Z,2.63
2022-08-08T09:03:20.944Z,3.42
2022-08-08T09:05:58.569Z,3.20
2022-08-08T09:08:28.247Z,3.78
2022-08-08T09:10:56.464Z,3.88
2022-08-08T09:13:28.257Z,3.38
2022-08-08T09:16:03.431Z,3.40
2022-08-08T09:18:30.622Z,3.50
2022-08-08T09:21:59.246Z,3.75
2022-08-08T09:23:43.745Z,3.35
2022-08-08T09:26:17.210Z,3.42
2022-08-08T09:28:44.295Z,3.03
2022-08-08T09:31:15.558Z,3.20
2022-08-08T09:34:15.728Z,3.50
2022-08-08T09:36:33.511Z,3.42
2022-08-08T09:39:03.612Z,3.05
2022-08-08T09:42:14.559Z,3.60
2022-08-08T09:44:34.251Z,3.60
2022-08-08T09:47:26.976Z,3.03
2022-08-08T09:49:51.726Z,3.42
2022-08-08T09:52:53.880Z,3.42
2022-08-08T09:55:08.818Z,3.60
2022-08-08T09:57:46.079Z,3.70
2022-08-08T10:00:34.552Z,2.92
2022-08-08T10:03:02.168Z,2.97
2022-08-08T10:05:34.006Z,3.03
2022-08-08T10:08:01.471Z,2.72
2022-08-08T10:10:30.184Z,3.30
2022-08-08T10:13:00.473Z,3.38
2022-08-08T10:15:42.156Z,6.03
2022-08-08T10:18:32.881Z,2.83
2022-08-08T10:21:26.258Z,2.97
2022-08-08T10:23:59.812Z,2.55
2022-08-08T10:26:57.071Z,2.53
2022-08-08T10:29:58.828Z,2.80
2022-08-08T10:32:34.065Z,2.72
2022-08-08T10:37:34.628Z,3.00
2022-08-08T10:40:11.541Z,2.85
2022-08-08T10:42:43.664Z,2.65
2022-08-08T10:45:11.914Z,2.97
2022-08-08T10:47:48.686Z,3.53
2022-08-08T10:50:20.022Z,3.00
2022-08-08T10:52:50.000Z,2.75
2022-08-08T10:55:39.447Z,3.47
2022-08-08T10:58:06.644Z,2.65
2022-08-08T11:00:39.229Z,3.17
2022-08-08T11:03:36.740Z,2.38
2022-08-08T11:06:06.579Z,2.20
2022-08-08T11:08:49.974Z,2.80
2022-08-08T11:11:59.785Z,2.38
2022-08-08T11:14:08.357Z,2.08
2022-08-08T11:16:42.605Z,2.55
2022-08-08T11:19:15.613Z,2.53
2022-08-08T11:21:56.254Z,2.28
2022-08-08T11:24:25.123Z,2.92
2022-08-08T11:26:56.816Z,2.47
2022-08-08T11:29:23.891Z,2.70
2022-08-08T11:32:09.405Z,2.53
2022-08-08T11:35:07.813Z,2.30
2022-08-08T11:38:34.278Z,3.47
2022-08-08T11:40:15.815Z,2.40
2022-08-08T11:42:50.826Z,2.78
2022-08-08T11:45:18.257Z,2.58
2022-08-08T11:48:04.469Z,3.30
2022-08-08T11:50:32.319Z,3.20
2022-08-08T11:53:00.809Z,2.58
2022-08-08T11:55:35.312Z,2.53
2022-08-08T11:58:08.512Z,2.70
2022-08-08T12:00:49.098Z,2.33
2022-08-08T12:03:22.949Z,2.15
2022-08-08T12:05:51.329Z,2.28
2022-08-08T12:08:29.768Z,2.30
2022-08-08T12:10:59.707Z,3.15
2022-08-08T12:13:37.622Z,2.83
2022-08-08T12:16:10.891Z,2.75
2022-08-08T12:18:44.531Z,2.53
2022-08-08T12:21:25.663Z,2.72
2022-08-08T12:24:14.162Z,2.50
2022-08-08T12:26:44.636Z,2.55
2022-08-08T12:29:25.974Z,2.80
2022-08-08T12:32:09.684Z,2.63
2022-08-08T12:34:39.993Z,2.70
2022-08-08T12:37:08.469Z,2.95
2022-08-08T12:40:00.536Z,2.45
2022-08-08T12:42:21.575Z,3.10
2022-08-08T12:44:48.328Z,2.60
2022-08-08T12:47:57.748Z,2.70
2022-08-08T12:50:13.036Z,2.33
2022-08-08T12:52:42.403Z,2.78
2022-08-08T12:55:14.445Z,2.58
2022-08-08T12:58:08.357Z,2.92
2022-08-08T13:00:42.176Z,3.13
2022-08-08T13:03:10.707Z,2.20
2022-08-08T13:06:04.086Z,2.30
2022-08-08T13:08:38.019Z,2.40
2022-08-08T13:11:04.563Z,2.63
2022-08-08T13:13:36.965Z,2.42
2022-08-08T13:16:36.187Z,2.40
2022-08-08T13:19:12.225Z,3.05
2022-08-08T13:21:53.502Z,2.25
2022-08-08T13:24:40.702Z,1.98
2022-08-08T13:27:12.600Z,2.30
2022-08-08T13:29:47.976Z,2.10
2022-08-08T13:32:14.804Z,2.50
2022-08-08T13:34:41.766Z,2.45
2022-08-08T13:37:11.030Z,2.42
2022-08-08T13:39:50.346Z,2.17
2022-08-08T13:42:17.894Z,2.00
2022-08-08T13:44:53.653Z,2.35
2022-08-08T13:47:20.053Z,2.05
2022-08-08T13:50:36.694Z,3.00
2022-08-08T13:52:48.167Z,2.63
2022-08-08T13:55:29.368Z,2.42
2022-08-08T13:58:07.754Z,2.58
2022-08-08T14:00:45.265Z,2.58
2022-08-08T14:03:52.696Z,2.83
2022-08-08T14:06:32.269Z,2.35
2022-08-08T14:08:57.198Z,2.10
2022-08-08T14:11:25.284Z,2.45
2022-08-08T14:14:00.416Z,2.30
2022-08-08T14:16:28.596Z,2.50
2022-08-08T14:18:56.301Z,2.30
2022-08-08T14:21:31.117Z,2.38
2022-08-08T14:24:06.960Z,2.72
2022-08-08T14:26:46.260Z,3.17
2022-08-08T14:29:29.937Z,2.40
2022-08-08T14:32:09.064Z,2.45
2022-08-08T14:34:39.334Z,2.80
2022-08-08T14:37:08.986Z,2.60
2022-08-08T14:39:47.931Z,2.70
2022-08-08T14:42:16.708Z,2.80
2022-08-08T14:44:52.829Z,4.20
2022-08-08T14:47:21.573Z,2.55
2022-08-08T14:50:06.891Z,2.58
2022-08-08T14:52:43.931Z,2.78
2022-08-08T14:55:12.937Z,2.63
2022-08-08T14:58:02.283Z,2.85
2022-08-08T15:00:27.577Z,1.98
2022-08-08T15:03:14.505Z,2.47
2022-08-08T15:05:52.244Z,2.70
2022-08-08T15:08:34.726Z,2.35
2022-08-08T15:11:06.491Z,2.75
2022-08-08T15:13:39.761Z,2.45
2022-08-08T15:16:08.510Z,1.95
2022-08-08T15:18:38.597Z,2.33
2022-08-08T15:21:08.121Z,2.40
2022-08-08T15:23:39.184Z,2.50
2022-08-08T15:26:09.599Z,2.50
2022-08-08T15:28:39.014Z,3.90
2022-08-08T15:31:05.473Z,2.50
2022-08-08T15:33:38.760Z,2.90
2022-08-08T15:36:18.786Z,2.80
2022-08-08T15:38:49.730Z,2.88
2022-08-08T15:41:17.115Z,2.42
2022-08-08T15:44:01.008Z,2.22
2022-08-08T15:46:35.404Z,3.28
2022-08-08T15:49:01.991Z,2.70
2022-08-08T15:51:33.510Z,3.88
2022-08-08T15:54:00.498Z,3.03
2022-08-08T15:56:26.848Z,2.60
2022-08-08T15:58:53.140Z,3.53
2022-08-08T16:01:21.002Z,2.08
2022-08-08T16:03:51.954Z,2.65
2022-08-08T16:06:28.780Z,2.65
2022-08-08T16:09:02.516Z,2.55
2022-08-08T16:13:03.838Z,2.97
2022-08-08T16:14:33.178Z,2.00
2022-08-08T16:17:00.138Z,2.45
2022-08-08T16:19:26.951Z,2.67
2022-08-08T16:21:54.016Z,2.45
2022-08-08T16:24:22.868Z,2.15
2022-08-08T16:26:50.738Z,2.50
2022-08-08T16:29:19.397Z,2.28
2022-08-08T16:32:04.271Z,2.05
2022-08-08T16:34:37.913Z,2.47
2022-08-08T16:37:05.229Z,2.20
2022-08-08T16:40:00.683Z,2.20
2022-08-08T16:42:18.889Z,2.33
2022-08-08T16:44:54.642Z,2.50
2022-08-08T16:47:41.515Z,2.13
2022-08-08T16:50:14.093Z,2.80
2022-08-08T16:55:00.746Z,2.42
2022-08-08T16:55:42.597Z,3.10
2022-08-08T16:58:17.758Z,2.67
2022-08-08T17:00:48.969Z,2.80
2022-08-08T17:03:24.500Z,2.50
2022-08-08T17:06:01.719Z,2.50
2022-08-08T17:08:28.438Z,2.30
2022-08-08T17:10:58.902Z,3.13
2022-08-08T17:13:41.309Z,2.80
2022-08-08T17:16:16.735Z,2.28
2022-08-08T17:18:43.501Z,2.60
2022-08-08T17:21:12.011Z,2.83
2022-08-08T17:23:58.564Z,2.40
2022-08-08T17:26:26.670Z,3.17
2022-08-08T17:28:55.781Z,2.38
2022-08-08T17:31:44.669Z,2.90
2022-08-08T17:34:49.151Z,8.60
2022-08-08T17:37:02.807Z,2.92
2022-08-08T17:40:04.656Z,3.28
2022-08-08T17:42:17.838Z,2.42
2022-08-08T17:44:44.942Z,3.95
2022-08-08T17:47:15.975Z,2.80
2022-08-08T17:49:49.966Z,3.35
2022-08-08T17:52:18.187Z,2.95
2022-08-08T17:54:46.367Z,2.80
2022-08-08T17:57:14.330Z,2.28
2022-08-08T17:59:45.829Z,2.85
2022-08-08T18:02:16.335Z,2.55
2022-08-08T18:04:50.419Z,2.42
2022-08-08T18:08:02.323Z,3.15
2022-08-08T18:10:04.437Z,3.78
2022-08-08T18:12:30.828Z,2.70
2022-08-08T18:14:57.568Z,2.92
2022-08-08T18:17:28.600Z,3.53
2022-08-08T18:20:42.789Z,2.78
2022-08-08T18:22:59.383Z,2.95
2022-08-08T18:25:25.747Z,2.17
2022-08-08T18:27:54.956Z,2.65
2022-08-08T18:30:21.387Z,2.30
2022-08-08T18:32:48.556Z,2.55
2022-08-08T18:35:17.504Z,2.72
2022-08-08T18:37:48.620Z,3.42
2022-08-08T18:40:15.237Z,2.70
2022-08-08T18:42:45.559Z,2.67
2022-08-08T18:45:45.037Z,3.22
2022-08-08T18:48:02.906Z,2.65
2022-08-08T18:50:34.317Z,3.10
2022-08-08T18:53:06.438Z,2.45
2022-08-08T18:55:33.662Z,3.17
2022-08-08T18:58:00.070Z,2.90
2022-08-08T19:00:26.378Z,3.10
2022-08-08T19:02:57.184Z,3.00
2022-08-08T19:05:30.163Z,3.38
2022-08-08T19:07:58.946Z,3.03
2022-08-08T19:10:26.396Z,2.60
2022-08-08T19:12:53.455Z,2.83
2022-08-08T19:15:23.580Z,2.80
2022-08-08T19:18:33.304Z,3.05
2022-08-08T19:20:39.294Z,3.15
2022-08-08T19:23:07.284Z,3.42
2022-08-08T19:26:02.149Z,3.25
2022-08-08T19:28:23.063Z,3.75
2022-08-08T19:31:03.248Z,3.20
2022-08-08T19:33:52.338Z,3.85
2022-08-08T19:36:17.622Z,4.45
2022-08-08T19:38:53.883Z,4.03
2022-08-08T19:41:21.482Z,4.57
2022-08-08T19:44:02.290Z,4.30
2022-08-08T19:46:33.239Z,4.20
2022-08-08T19:49:00.632Z,4.72
2022-08-08T19:51:34.599Z,4.10
2022-08-08T19:54:05.745Z,4.45
2022-08-08T19:56:40.133Z,7.28
2022-08-08T19:59:08.278Z,7.17
2022-08-08T20:02:01.910Z,8.40
2022-08-08T20:04:21.219Z,9.90
2022-08-08T20:06:49.939Z,9.75
2022-08-08T20:09:22.618Z,9.25
2022-08-08T20:11:49.630Z,8.68
2022-08-08T20:14:33.569Z,6.88
2022-08-08T20:17:01.958Z,6.40
2022-08-08T20:19:34.360Z,6.90
2022-08-08T20:22:13.491Z,5.35
2022-08-08T20:24:47.907Z,4.93
2022-08-08T20:27:20.345Z,5.00
2022-08-08T20:30:00.311Z,4.40
2022-08-08T20:32:28.055Z,4.05
2022-08-08T20:35:01.364Z,3.78
2022-08-08T20:37:47.246Z,3.78
2022-08-08T20:40:16.668Z,5.60
2022-08-08T20:42:49.953Z,3.80
2022-08-08T20:45:55.218Z,4.03
2022-08-08T20:48:07.730Z,3.75
2022-08-08T20:50:35.290Z,3.85
2022-08-08T20:53:01.834Z,3.50
2022-08-08T20:55:29.089Z,3.40
2022-08-08T20:58:02.419Z,3.58
2022-08-08T21:00:28.881Z,3.03
2022-08-08T21:02:56.829Z,4.25
2022-08-08T21:05:23.359Z,3.45
2022-08-08T21:08:34.324Z,3.28
2022-08-08T21:10:38.531Z,3.38
2022-08-08T21:13:08.711Z,3.47
2022-08-08T21:16:05.174Z,3.25
2022-08-08T21:18:22.690Z,3.25
2022-08-08T21:20:54.171Z,3.63
2022-08-08T21:23:25.117Z,3.00
2022-08-08T21:26:06.811Z,3.55
2022-08-08T21:28:36.190Z,3.33
2022-08-08T21:31:22.854Z,3.75
2022-08-08T21:33:50.297Z,4.00
2022-08-08T21:36:20.871Z,4.00
2022-08-08T21:38:47.776Z,3.58
2022-08-08T21:41:18.484Z,3.78
2022-08-08T21:44:00.959Z,3.47
2022-08-08T21:48:07.244Z,4.38
2022-08-08T21:49:16.694Z,4.18
2022-08-08T21:54:17.303Z,4.70
2022-08-08T21:54:52.481Z,4.40
2022-08-08T21:57:16.703Z,3.97
2022-08-08T22:00:03.016Z,4.32
2022-08-08T22:02:30.348Z,3.83
2022-08-08T22:04:59.123Z,4.03
2022-08-08T22:07:26.021Z,3.78
2022-08-08T22:10:01.203Z,4.00
2022-08-08T22:12:27.634Z,5.03
2022-08-08T22:14:54.014Z,3.95
2022-08-08T22:17:20.364Z,3.78
2022-08-08T22:20:12.682Z,4.97
2022-08-08T22:22:38.024Z,4.22
2022-08-08T22:25:24.810Z,3.85
2022-08-08T22:28:02.992Z,4.30
2022-08-08T22:30:31.099Z,5.00
2022-08-08T22:32:57.567Z,4.40
2022-08-08T22:35:27.389Z,4.35
2022-08-08T22:38:14.125Z,4.55
2022-08-08T22:40:44.191Z,4.43
2022-08-08T22:43:11.261Z,4.80
2022-08-08T22:45:38.415Z,4.50
2022-08-08T22:48:05.816Z,4.82
2022-08-08T22:50:33.515Z,4.70
2022-08-08T22:54:29.471Z,5.53
2022-08-08T22:55:58.820Z,4.85
2022-08-08T22:58:29.215Z,5.68
2022-08-08T23:00:58.289Z,7.00
2022-08-08T23:03:34.194Z,5.30
2022-08-08T23:06:13.147Z,6.47
2022-08-08T23:08:44.657Z,7.03
2022-08-08T23:11:22.593Z,5.70
2022-08-08T23:13:53.717Z,6.07
2022-08-08T23:16:41.291Z,5.93
2022-08-08T23:19:09.930Z,6.43
2022-08-08T23:21:38.044Z,7.80
2022-08-08T23:24:05.493Z,7.53
2022-08-08T23:26:32.767Z,6.82
2022-08-08T23:29:00.472Z,8.13
2022-08-08T23:31:26.773Z,7.40
2022-08-08T23:34:18.712Z,8.40
2022-08-08T23:36:39.411Z,7.38
2022-08-08T23:39:07.371Z,6.55
2022-08-08T23:41:41.643Z,7.63
2022-08-08T23:44:12.676Z,8.30
2022-08-08T23:49:05.199Z,7.63
2022-08-08T23:49:25.398Z,7.35
2022-08-08T23:52:04.446Z,6.38
2022-08-08T23:54:42.201Z,7.55
2022-08-08T23:57:26.319Z,6.30
2022-08-08T23:59:55.432Z,6.38
